sensor_id;sensor_type;location;lat;lon;timestamp;P1;durP1;ratioP1;P2;durP2;ratioP2
52438;SDS011;38359;53.150;6.504;2022-08-03T00:00:54;7.57;;;2.50;;
52438;SDS011;38359;53.150;6.504;2022-08-03T00:03:20;8.52;;;2.30;;
52438;SDS011;38359;53.150;6.504;2022-08-03T00:05:46;10.07;;;2.35;;
52438;SDS011;38359;53.150;6.504;2022-08-03T00:08:12;4.22;;;1.90;;
52438;SDS011;38359;53.150;6.504;2022-08-03T00:10:37;6.70;;;2.30;;
52438;SDS011;38359;53.150;6.504;2022-08-03T00:13:03;7.30;;;2.38;;
52438;SDS011;38359;53.150;6.504;2022-08-03T00:15:29;8.80;;;2.60;;
52438;SDS011;38359;53.150;6.504;2022-08-03T00:17:54;11.32;;;2.50;;
52438;SDS011;38359;53.150;6.504;2022-08-03T00:20:20;12.43;;;2.80;;
52438;SDS011;38359;53.150;6.504;2022-08-03T00:22:46;7.20;;;2.22;;
52438;SDS011;38359;53.150;6.504;2022-08-03T00:25:12;8.43;;;2.63;;
52438;SDS011;38359;53.150;6.504;2022-08-03T00:27:38;6.85;;;2.63;;
52438;SDS011;38359;53.150;6.504;2022-08-03T00:30:04;6.05;;;2.60;;
52438;SDS011;38359;53.150;6.504;2022-08-03T00:32:31;4.03;;;2.30;;
52438;SDS011;38359;53.150;6.504;2022-08-03T00:34:57;12.52;;;2.70;;
52438;SDS011;38359;53.150;6.504;2022-08-03T00:37:22;7.72;;;3.13;;
52438;SDS011;38359;53.150;6.504;2022-08-03T00:39:48;5.97;;;2.65;;
52438;SDS011;38359;53.150;6.504;2022-08-03T00:42:14;6.93;;;2.70;;
52438;SDS011;38359;53.150;6.504;2022-08-03T00:44:43;9.85;;;2.22;;
52438;SDS011;38359;53.150;6.504;2022-08-03T00:47:09;7.95;;;3.15;;
52438;SDS011;38359;53.150;6.504;2022-08-03T00:49:36;8.18;;;3.25;;
52438;SDS011;38359;53.150;6.504;2022-08-03T00:52:04;7.55;;;2.17;;
52438;SDS011;38359;53.150;6.504;2022-08-03T00:54:33;9.68;;;3.42;;
52438;SDS011;38359;53.150;6.504;2022-08-03T00:57:03;8.77;;;3.10;;
52438;SDS011;38359;53.150;6.504;2022-08-03T00:59:29;8.45;;;2.65;;
52438;SDS011;38359;53.150;6.504;2022-08-03T01:01:55;11.88;;;3.42;;
52438;SDS011;38359;53.150;6.504;2022-08-03T01:04:21;5.90;;;2.90;;
52438;SDS011;38359;53.150;6.504;2022-08-03T01:07:02;12.30;;;2.97;;
52438;SDS011;38359;53.150;6.504;2022-08-03T01:12:58;7.35;;;2.42;;
52438;SDS011;38359;53.150;6.504;2022-08-03T01:21:06;8.15;;;2.78;;
52438;SDS011;38359;53.150;6.504;2022-08-03T01:29:51;10.05;;;2.63;;
52438;SDS011;38359;53.150;6.504;2022-08-03T01:32:34;13.02;;;2.20;;
52438;SDS011;38359;53.150;6.504;2022-08-03T01:35:30;8.32;;;2.40;;
52438;SDS011;38359;53.150;6.504;2022-08-03T01:38:03;5.43;;;2.08;;
52438;SDS011;38359;53.150;6.504;2022-08-03T01:40:36;9.55;;;2.20;;
52438;SDS011;38359;53.150;6.504;2022-08-03T01:43:04;9.30;;;2.17;;
52438;SDS011;38359;53.150;6.504;2022-08-03T01:45:33;8.98;;;2.30;;
52438;SDS011;38359;53.150;6.504;2022-08-03T01:48:01;7.93;;;2.00;;
52438;SDS011;38359;53.150;6.504;2022-08-03T01:50:28;7.20;;;2.17;;
52438;SDS011;38359;53.150;6.504;2022-08-03T01:52:56;12.57;;;2.33;;
52438;SDS011;38359;53.150;6.504;2022-08-03T01:55:23;6.70;;;1.98;;
52438;SDS011;38359;53.150;6.504;2022-08-03T01:57:54;7.18;;;2.20;;
52438;SDS011;38359;53.150;6.504;2022-08-03T02:00:20;5.68;;;1.92;;
52438;SDS011;38359;53.150;6.504;2022-08-03T02:02:48;7.13;;;2.10;;
52438;SDS011;38359;53.150;6.504;2022-08-03T02:05:15;8.90;;;2.33;;
52438;SDS011;38359;53.150;6.504;2022-08-03T02:07:42;5.18;;;1.75;;
52438;SDS011;38359;53.150;6.504;2022-08-03T02:10:11;4.10;;;1.75;;
52438;SDS011;38359;53.150;6.504;2022-08-03T02:12:41;10.50;;;2.33;;
52438;SDS011;38359;53.150;6.504;2022-08-03T02:15:10;8.90;;;2.28;;
52438;SDS011;38359;53.150;6.504;2022-08-03T02:17:39;14.07;;;2.55;;
52438;SDS011;38359;53.150;6.504;2022-08-03T02:20:09;10.10;;;2.70;;
52438;SDS011;38359;53.150;6.504;2022-08-03T02:22:38;6.97;;;1.85;;
52438;SDS011;38359;53.150;6.504;2022-08-03T02:25:09;6.55;;;1.85;;
52438;SDS011;38359;53.150;6.504;2022-08-03T02:27:38;8.20;;;2.13;;
52438;SDS011;38359;53.150;6.504;2022-08-03T02:30:10;10.75;;;2.67;;
52438;SDS011;38359;53.150;6.504;2022-08-03T02:32:39;9.73;;;2.17;;
52438;SDS011;38359;53.150;6.504;2022-08-03T02:35:10;10.52;;;2.03;;
52438;SDS011;38359;53.150;6.504;2022-08-03T02:37:41;9.27;;;2.20;;
52438;SDS011;38359;53.150;6.504;2022-08-03T02:40:11;7.43;;;2.13;;
52438;SDS011;38359;53.150;6.504;2022-08-03T02:42:39;6.13;;;2.53;;
52438;SDS011;38359;53.150;6.504;2022-08-03T02:45:06;6.32;;;2.05;;
52438;SDS011;38359;53.150;6.504;2022-08-03T02:47:38;7.60;;;2.20;;
52438;SDS011;38359;53.150;6.504;2022-08-03T02:50:06;9.38;;;2.58;;
52438;SDS011;38359;53.150;6.504;2022-08-03T02:52:36;4.97;;;2.10;;
52438;SDS011;38359;53.150;6.504;2022-08-03T02:55:04;7.40;;;2.50;;
52438;SDS011;38359;53.150;6.504;2022-08-03T02:57:34;5.53;;;2.10;;
52438;SDS011;38359;53.150;6.504;2022-08-03T03:00:02;8.68;;;2.55;;
52438;SDS011;38359;53.150;6.504;2022-08-03T03:02:29;15.00;;;2.58;;
52438;SDS011;38359;53.150;6.504;2022-08-03T03:04:56;5.70;;;2.15;;
52438;SDS011;38359;53.150;6.504;2022-08-03T03:07:23;10.48;;;2.65;;
52438;SDS011;38359;53.150;6.504;2022-08-03T03:09:50;7.60;;;2.58;;
52438;SDS011;38359;53.150;6.504;2022-08-03T03:12:17;6.93;;;2.38;;
52438;SDS011;38359;53.150;6.504;2022-08-03T03:14:45;10.43;;;2.40;;
52438;SDS011;38359;53.150;6.504;2022-08-03T03:17:11;7.45;;;2.53;;
52438;SDS011;38359;53.150;6.504;2022-08-03T03:19:38;6.00;;;2.42;;
52438;SDS011;38359;53.150;6.504;2022-08-03T03:22:07;8.45;;;2.25;;
52438;SDS011;38359;53.150;6.504;2022-08-03T03:24:35;6.63;;;2.38;;
52438;SDS011;38359;53.150;6.504;2022-08-03T03:27:02;12.45;;;2.70;;
52438;SDS011;38359;53.150;6.504;2022-08-03T03:29:28;8.25;;;3.05;;
52438;SDS011;38359;53.150;6.504;2022-08-03T03:31:54;9.00;;;2.75;;
52438;SDS011;38359;53.150;6.504;2022-08-03T03:34:21;11.50;;;2.85;;
52438;SDS011;38359;53.150;6.504;2022-08-03T03:36:47;7.10;;;2.78;;
52438;SDS011;38359;53.150;6.504;2022-08-03T03:39:13;7.93;;;2.70;;
52438;SDS011;38359;53.150;6.504;2022-08-03T03:41:39;8.02;;;2.33;;
52438;SDS011;38359;53.150;6.504;2022-08-03T03:44:04;4.95;;;2.33;;
52438;SDS011;38359;53.150;6.504;2022-08-03T03:46:30;8.60;;;2.60;;
52438;SDS011;38359;53.150;6.504;2022-08-03T03:48:56;10.18;;;2.97;;
52438;SDS011;38359;53.150;6.504;2022-08-03T03:51:22;13.57;;;3.20;;
52438;SDS011;38359;53.150;6.504;2022-08-03T03:53:55;7.05;;;2.65;;
52438;SDS011;38359;53.150;6.504;2022-08-03T03:56:23;8.02;;;2.88;;
52438;SDS011;38359;53.150;6.504;2022-08-03T03:58:49;12.82;;;3.15;;
52438;SDS011;38359;53.150;6.504;2022-08-03T04:01:15;9.73;;;2.65;;
52438;SDS011;38359;53.150;6.504;2022-08-03T04:03:43;9.70;;;2.90;;
52438;SDS011;38359;53.150;6.504;2022-08-03T04:06:09;9.45;;;3.20;;
52438;SDS011;38359;53.150;6.504;2022-08-03T04:08:55;8.82;;;2.63;;
52438;SDS011;38359;53.150;6.504;2022-08-03T04:11:40;9.77;;;2.85;;
52438;SDS011;38359;53.150;6.504;2022-08-03T04:14:23;7.35;;;2.42;;
52438;SDS011;38359;53.150;6.504;2022-08-03T04:17:11;13.25;;;3.53;;
52438;SDS011;38359;53.150;6.504;2022-08-03T04:19:40;12.40;;;3.17;;
52438;SDS011;38359;53.150;6.504;2022-08-03T04:22:15;5.65;;;2.63;;
52438;SDS011;38359;53.150;6.504;2022-08-03T04:24:47;6.78;;;2.47;;
52438;SDS011;38359;53.150;6.504;2022-08-03T04:27:20;10.88;;;3.05;;
52438;SDS011;38359;53.150;6.504;2022-08-03T04:29:52;9.23;;;3.38;;
52438;SDS011;38359;53.150;6.504;2022-08-03T04:32:21;7.25;;;2.80;;
52438;SDS011;38359;53.150;6.504;2022-08-03T04:34:50;8.02;;;3.50;;
52438;SDS011;38359;53.150;6.504;2022-08-03T04:37:20;10.07;;;2.78;;
52438;SDS011;38359;53.150;6.504;2022-08-03T04:39:57;11.55;;;3.13;;
52438;SDS011;38359;53.150;6.504;2022-08-03T04:42:28;9.10;;;3.00;;
52438;SDS011;38359;53.150;6.504;2022-08-03T04:44:57;8.15;;;3.40;;
52438;SDS011;38359;53.150;6.504;2022-08-03T04:47:23;9.20;;;3.15;;
52438;SDS011;38359;53.150;6.504;2022-08-03T04:49:49;7.10;;;2.97;;
52438;SDS011;38359;53.150;6.504;2022-08-03T04:52:16;10.18;;;2.92;;
52438;SDS011;38359;53.150;6.504;2022-08-03T04:54:43;10.68;;;3.25;;
52438;SDS011;38359;53.150;6.504;2022-08-03T04:57:09;10.70;;;3.50;;
52438;SDS011;38359;53.150;6.504;2022-08-03T04:59:36;11.80;;;3.10;;
52438;SDS011;38359;53.150;6.504;2022-08-03T05:02:02;7.32;;;3.17;;
52438;SDS011;38359;53.150;6.504;2022-08-03T05:04:28;11.57;;;3.08;;
52438;SDS011;38359;53.150;6.504;2022-08-03T05:06:54;11.48;;;3.58;;
52438;SDS011;38359;53.150;6.504;2022-08-03T05:09:20;11.45;;;3.40;;
52438;SDS011;38359;53.150;6.504;2022-08-03T05:11:46;12.63;;;3.38;;
52438;SDS011;38359;53.150;6.504;2022-08-03T05:14:12;11.25;;;3.10;;
52438;SDS011;38359;53.150;6.504;2022-08-03T05:16:38;15.73;;;3.13;;
52438;SDS011;38359;53.150;6.504;2022-08-03T05:19:04;10.23;;;2.90;;
52438;SDS011;38359;53.150;6.504;2022-08-03T05:21:29;7.72;;;2.90;;
52438;SDS011;38359;53.150;6.504;2022-08-03T05:23:56;11.55;;;3.38;;
52438;SDS011;38359;53.150;6.504;2022-08-03T05:26:21;7.88;;;3.40;;
52438;SDS011;38359;53.150;6.504;2022-08-03T05:28:47;10.02;;;3.00;;
52438;SDS011;38359;53.150;6.504;2022-08-03T05:31:13;11.18;;;3.22;;
52438;SDS011;38359;53.150;6.504;2022-08-03T05:33:38;11.73;;;3.72;;
52438;SDS011;38359;53.150;6.504;2022-08-03T05:36:04;11.70;;;3.45;;
52438;SDS011;38359;53.150;6.504;2022-08-03T05:38:31;9.02;;;3.15;;
52438;SDS011;38359;53.150;6.504;2022-08-03T05:40:57;12.35;;;3.58;;
52438;SDS011;38359;53.150;6.504;2022-08-03T05:43:23;10.30;;;2.80;;
52438;SDS011;38359;53.150;6.504;2022-08-03T05:45:48;9.52;;;3.38;;
52438;SDS011;38359;53.150;6.504;2022-08-03T05:48:14;9.77;;;3.28;;
52438;SDS011;38359;53.150;6.504;2022-08-03T05:50:40;14.98;;;4.35;;
52438;SDS011;38359;53.150;6.504;2022-08-03T05:53:06;10.57;;;4.05;;
52438;SDS011;38359;53.150;6.504;2022-08-03T05:55:32;8.98;;;3.40;;
52438;SDS011;38359;53.150;6.504;2022-08-03T05:57:58;13.15;;;3.72;;
52438;SDS011;38359;53.150;6.504;2022-08-03T06:00:23;11.73;;;3.80;;
52438;SDS011;38359;53.150;6.504;2022-08-03T06:02:49;13.30;;;3.60;;
52438;SDS011;38359;53.150;6.504;2022-08-03T06:05:15;10.10;;;3.90;;
52438;SDS011;38359;53.150;6.504;2022-08-03T06:07:41;10.13;;;3.08;;
52438;SDS011;38359;53.150;6.504;2022-08-03T06:10:07;12.48;;;3.90;;
52438;SDS011;38359;53.150;6.504;2022-08-03T06:12:33;8.07;;;3.33;;
52438;SDS011;38359;53.150;6.504;2022-08-03T06:15:03;8.85;;;3.80;;
52438;SDS011;38359;53.150;6.504;2022-08-03T06:17:29;9.63;;;3.20;;
52438;SDS011;38359;53.150;6.504;2022-08-03T06:19:55;12.18;;;3.47;;
52438;SDS011;38359;53.150;6.504;2022-08-03T06:22:21;14.65;;;4.18;;
52438;SDS011;38359;53.150;6.504;2022-08-03T06:24:47;13.82;;;3.50;;
52438;SDS011;38359;53.150;6.504;2022-08-03T06:27:12;14.70;;;3.83;;
52438;SDS011;38359;53.150;6.504;2022-08-03T06:29:38;9.02;;;4.05;;
52438;SDS011;38359;53.150;6.504;2022-08-03T06:32:04;11.02;;;3.55;;
52438;SDS011;38359;53.150;6.504;2022-08-03T06:34:30;11.13;;;4.38;;
52438;SDS011;38359;53.150;6.504;2022-08-03T06:36:56;10.52;;;3.70;;
52438;SDS011;38359;53.150;6.504;2022-08-03T06:39:21;13.05;;;4.80;;
52438;SDS011;38359;53.150;6.504;2022-08-03T06:41:47;9.65;;;3.55;;
52438;SDS011;38359;53.150;6.504;2022-08-03T06:44:13;16.65;;;3.90;;
52438;SDS011;38359;53.150;6.504;2022-08-03T06:46:39;11.55;;;3.50;;
52438;SDS011;38359;53.150;6.504;2022-08-03T06:49:05;13.50;;;3.85;;
52438;SDS011;38359;53.150;6.504;2022-08-03T06:51:31;13.13;;;3.58;;
52438;SDS011;38359;53.150;6.504;2022-08-03T06:53:57;8.27;;;4.15;;
52438;SDS011;38359;53.150;6.504;2022-08-03T06:56:23;9.60;;;4.15;;
52438;SDS011;38359;53.150;6.504;2022-08-03T06:58:49;15.95;;;4.03;;
52438;SDS011;38359;53.150;6.504;2022-08-03T07:01:14;12.93;;;3.92;;
52438;SDS011;38359;53.150;6.504;2022-08-03T07:03:40;9.18;;;4.00;;
52438;SDS011;38359;53.150;6.504;2022-08-03T07:06:06;12.90;;;4.10;;
52438;SDS011;38359;53.150;6.504;2022-08-03T07:08:31;21.00;;;3.92;;
52438;SDS011;38359;53.150;6.504;2022-08-03T07:10:57;17.17;;;4.40;;
52438;SDS011;38359;53.150;6.504;2022-08-03T07:13:23;13.93;;;4.50;;
52438;SDS011;38359;53.150;6.504;2022-08-03T07:15:49;14.60;;;3.63;;
52438;SDS011;38359;53.150;6.504;2022-08-03T07:18:15;10.50;;;3.97;;
52438;SDS011;38359;53.150;6.504;2022-08-03T07:20:40;8.63;;;3.50;;
52438;SDS011;38359;53.150;6.504;2022-08-03T07:23:06;15.23;;;4.05;;
52438;SDS011;38359;53.150;6.504;2022-08-03T07:25:32;10.85;;;3.80;;
52438;SDS011;38359;53.150;6.504;2022-08-03T07:27:58;11.30;;;4.15;;
52438;SDS011;38359;53.150;6.504;2022-08-03T07:30:24;12.18;;;3.80;;
52438;SDS011;38359;53.150;6.504;2022-08-03T07:32:49;15.52;;;3.65;;
52438;SDS011;38359;53.150;6.504;2022-08-03T07:35:15;11.85;;;3.58;;
52438;SDS011;38359;53.150;6.504;2022-08-03T07:37:41;19.40;;;4.38;;
52438;SDS011;38359;53.150;6.504;2022-08-03T07:40:07;13.57;;;3.33;;
52438;SDS011;38359;53.150;6.504;2022-08-03T07:42:33;10.02;;;3.55;;
52438;SDS011;38359;53.150;6.504;2022-08-03T07:44:58;14.95;;;3.83;;
52438;SDS011;38359;53.150;6.504;2022-08-03T07:47:25;10.38;;;3.88;;
52438;SDS011;38359;53.150;6.504;2022-08-03T07:49:54;13.70;;;4.47;;
52438;SDS011;38359;53.150;6.504;2022-08-03T07:52:20;14.55;;;3.90;;
52438;SDS011;38359;53.150;6.504;2022-08-03T07:55:05;11.43;;;3.40;;
52438;SDS011;38359;53.150;6.504;2022-08-03T07:57:33;11.93;;;3.88;;
52438;SDS011;38359;53.150;6.504;2022-08-03T07:59:59;14.25;;;3.80;;
52438;SDS011;38359;53.150;6.504;2022-08-03T08:02:25;13.93;;;4.10;;
52438;SDS011;38359;53.150;6.504;2022-08-03T08:04:51;9.77;;;3.95;;
52438;SDS011;38359;53.150;6.504;2022-08-03T08:07:17;13.43;;;3.60;;
52438;SDS011;38359;53.150;6.504;2022-08-03T08:09:43;14.40;;;4.10;;
52438;SDS011;38359;53.150;6.504;2022-08-03T08:12:09;14.70;;;3.80;;
52438;SDS011;38359;53.150;6.504;2022-08-03T08:14:36;12.50;;;3.85;;
52438;SDS011;38359;53.150;6.504;2022-08-03T08:17:02;13.98;;;3.25;;
52438;SDS011;38359;53.150;6.504;2022-08-03T08:19:28;13.98;;;3.15;;
52438;SDS011;38359;53.150;6.504;2022-08-03T08:21:54;11.75;;;3.85;;
52438;SDS011;38359;53.150;6.504;2022-08-03T08:24:20;14.68;;;3.65;;
52438;SDS011;38359;53.150;6.504;2022-08-03T08:26:46;12.05;;;3.10;;
52438;SDS011;38359;53.150;6.504;2022-08-03T08:29:11;13.30;;;3.42;;
52438;SDS011;38359;53.150;6.504;2022-08-03T08:31:37;12.52;;;3.58;;
52438;SDS011;38359;53.150;6.504;2022-08-03T08:34:03;9.88;;;3.15;;
52438;SDS011;38359;53.150;6.504;2022-08-03T08:36:34;11.90;;;3.50;;
52438;SDS011;38359;53.150;6.504;2022-08-03T08:39:00;10.55;;;3.70;;
52438;SDS011;38359;53.150;6.504;2022-08-03T08:41:27;10.65;;;3.90;;
52438;SDS011;38359;53.150;6.504;2022-08-03T08:43:57;13.18;;;4.13;;
52438;SDS011;38359;53.150;6.504;2022-08-03T08:46:23;9.65;;;3.85;;
52438;SDS011;38359;53.150;6.504;2022-08-03T08:48:49;10.27;;;3.45;;
52438;SDS011;38359;53.150;6.504;2022-08-03T08:51:17;11.25;;;3.40;;
52438;SDS011;38359;53.150;6.504;2022-08-03T08:53:47;12.93;;;3.95;;
52438;SDS011;38359;53.150;6.504;2022-08-03T08:56:17;13.38;;;3.78;;
52438;SDS011;38359;53.150;6.504;2022-08-03T08:58:48;12.73;;;5.07;;
52438;SDS011;38359;53.150;6.504;2022-08-03T09:01:17;14.07;;;3.85;;
52438;SDS011;38359;53.150;6.504;2022-08-03T09:03:45;12.27;;;4.85;;
52438;SDS011;38359;53.150;6.504;2022-08-03T09:06:11;12.38;;;4.57;;
52438;SDS011;38359;53.150;6.504;2022-08-03T09:08:38;12.48;;;4.45;;
52438;SDS011;38359;53.150;6.504;2022-08-03T09:11:05;10.07;;;4.38;;
52438;SDS011;38359;53.150;6.504;2022-08-03T09:13:31;12.65;;;4.45;;
52438;SDS011;38359;53.150;6.504;2022-08-03T09:16:08;11.07;;;4.32;;
52438;SDS011;38359;53.150;6.504;2022-08-03T09:18:35;11.20;;;3.90;;
52438;SDS011;38359;53.150;6.504;2022-08-03T09:23:58;15.85;;;4.18;;
52438;SDS011;38359;53.150;6.504;2022-08-03T09:26:28;20.45;;;5.38;;
52438;SDS011;38359;53.150;6.504;2022-08-03T09:28:56;11.98;;;4.00;;
52438;SDS011;38359;53.150;6.504;2022-08-03T09:31:43;15.27;;;4.38;;
52438;SDS011;38359;53.150;6.504;2022-08-03T09:34:13;11.77;;;4.45;;
52438;SDS011;38359;53.150;6.504;2022-08-03T09:36:44;14.73;;;3.88;;
52438;SDS011;38359;53.150;6.504;2022-08-03T09:39:12;15.95;;;5.20;;
52438;SDS011;38359;53.150;6.504;2022-08-03T09:41:47;13.82;;;4.22;;
52438;SDS011;38359;53.150;6.504;2022-08-03T09:47:02;14.77;;;4.03;;
52438;SDS011;38359;53.150;6.504;2022-08-03T09:49:30;8.85;;;4.18;;
52438;SDS011;38359;53.150;6.504;2022-08-03T09:51:57;10.63;;;3.58;;
52438;SDS011;38359;53.150;6.504;2022-08-03T09:54:37;15.52;;;4.60;;
52438;SDS011;38359;53.150;6.504;2022-08-03T09:57:03;14.38;;;3.80;;
52438;SDS011;38359;53.150;6.504;2022-08-03T09:59:30;8.23;;;3.78;;
52438;SDS011;38359;53.150;6.504;2022-08-03T10:01:57;14.57;;;3.95;;
52438;SDS011;38359;53.150;6.504;2022-08-03T10:04:26;13.70;;;3.97;;
52438;SDS011;38359;53.150;6.504;2022-08-03T10:10:07;15.07;;;3.88;;
52438;SDS011;38359;53.150;6.504;2022-08-03T10:12:34;14.35;;;4.10;;
52438;SDS011;38359;53.150;6.504;2022-08-03T10:15:02;13.75;;;4.05;;
52438;SDS011;38359;53.150;6.504;2022-08-03T10:17:28;15.05;;;4.35;;
52438;SDS011;38359;53.150;6.504;2022-08-03T10:19:54;16.58;;;4.00;;
52438;SDS011;38359;53.150;6.504;2022-08-03T10:22:23;11.95;;;3.97;;
52438;SDS011;38359;53.150;6.504;2022-08-03T10:24:56;15.80;;;3.75;;
52438;SDS011;38359;53.150;6.504;2022-08-03T10:30:00;11.90;;;3.67;;
52438;SDS011;38359;53.150;6.504;2022-08-03T10:32:30;11.65;;;3.78;;
52438;SDS011;38359;53.150;6.504;2022-08-03T10:35:16;14.15;;;3.80;;
52438;SDS011;38359;53.150;6.504;2022-08-03T10:37:51;10.38;;;3.67;;
52438;SDS011;38359;53.150;6.504;2022-08-03T10:40:33;14.18;;;4.10;;
52438;SDS011;38359;53.150;6.504;2022-08-03T10:43:06;13.35;;;4.00;;
52438;SDS011;38359;53.150;6.504;2022-08-03T10:45:40;14.65;;;4.10;;
52438;SDS011;38359;53.150;6.504;2022-08-03T10:48:07;13.45;;;4.30;;
52438;SDS011;38359;53.150;6.504;2022-08-03T10:50:34;16.88;;;4.30;;
52438;SDS011;38359;53.150;6.504;2022-08-03T10:53:03;14.73;;;4.03;;
52438;SDS011;38359;53.150;6.504;2022-08-03T11:01:00;13.57;;;4.05;;
52438;SDS011;38359;53.150;6.504;2022-08-03T11:03:32;19.13;;;4.35;;
52438;SDS011;38359;53.150;6.504;2022-08-03T11:06:18;16.45;;;4.43;;
52438;SDS011;38359;53.150;6.504;2022-08-03T11:14:03;14.85;;;4.45;;
52438;SDS011;38359;53.150;6.504;2022-08-03T11:16:44;16.98;;;4.43;;
52438;SDS011;38359;53.150;6.504;2022-08-03T11:19:17;11.20;;;4.40;;
52438;SDS011;38359;53.150;6.504;2022-08-03T11:29:54;14.55;;;4.35;;
52438;SDS011;38359;53.150;6.504;2022-08-03T11:35:12;14.00;;;4.55;;
52438;SDS011;38359;53.150;6.504;2022-08-03T11:46:02;23.65;;;5.53;;
52438;SDS011;38359;53.150;6.504;2022-08-03T11:48:40;14.35;;;4.63;;
52438;SDS011;38359;53.150;6.504;2022-08-03T11:53:52;13.80;;;4.20;;
52438;SDS011;38359;53.150;6.504;2022-08-03T11:56:20;16.20;;;4.60;;
52438;SDS011;38359;53.150;6.504;2022-08-03T11:58:46;18.58;;;5.22;;
52438;SDS011;38359;53.150;6.504;2022-08-03T12:01:18;17.23;;;4.63;;
52438;SDS011;38359;53.150;6.504;2022-08-03T12:03:46;16.25;;;4.47;;
52438;SDS011;38359;53.150;6.504;2022-08-03T12:06:13;16.58;;;4.20;;
52438;SDS011;38359;53.150;6.504;2022-08-03T12:08:41;21.55;;;4.72;;
52438;SDS011;38359;53.150;6.504;2022-08-03T12:11:08;19.27;;;4.22;;
52438;SDS011;38359;53.150;6.504;2022-08-03T12:13:38;19.60;;;4.47;;
52438;SDS011;38359;53.150;6.504;2022-08-03T12:16:09;20.35;;;4.53;;
52438;SDS011;38359;53.150;6.504;2022-08-03T12:18:37;13.38;;;3.65;;
52438;SDS011;38359;53.150;6.504;2022-08-03T12:21:04;23.15;;;4.20;;
52438;SDS011;38359;53.150;6.504;2022-08-03T12:23:35;14.77;;;3.53;;
52438;SDS011;38359;53.150;6.504;2022-08-03T12:26:03;17.73;;;4.68;;
52438;SDS011;38359;53.150;6.504;2022-08-03T12:28:32;16.80;;;3.90;;
52438;SDS011;38359;53.150;6.504;2022-08-03T12:31:02;19.00;;;4.18;;
52438;SDS011;38359;53.150;6.504;2022-08-03T12:36:27;20.70;;;4.67;;
52438;SDS011;38359;53.150;6.504;2022-08-03T12:39:03;20.77;;;4.28;;
52438;SDS011;38359;53.150;6.504;2022-08-03T12:41:34;18.83;;;4.68;;
52438;SDS011;38359;53.150;6.504;2022-08-03T12:44:02;14.25;;;4.20;;
52438;SDS011;38359;53.150;6.504;2022-08-03T12:46:34;14.38;;;4.45;;
52438;SDS011;38359;53.150;6.504;2022-08-03T12:49:03;14.68;;;4.25;;
52438;SDS011;38359;53.150;6.504;2022-08-03T12:54:09;15.15;;;4.55;;
52438;SDS011;38359;53.150;6.504;2022-08-03T12:59:28;19.58;;;4.72;;
52438;SDS011;38359;53.150;6.504;2022-08-03T13:01:59;11.75;;;4.30;;
52438;SDS011;38359;53.150;6.504;2022-08-03T13:06:59;14.27;;;5.10;;
52438;SDS011;38359;53.150;6.504;2022-08-03T13:09:28;12.18;;;5.15;;
52438;SDS011;38359;53.150;6.504;2022-08-03T13:12:05;18.48;;;5.45;;
52438;SDS011;38359;53.150;6.504;2022-08-03T13:14:32;22.40;;;5.55;;
52438;SDS011;38359;53.150;6.504;2022-08-03T13:16:58;14.65;;;4.68;;
52438;SDS011;38359;53.150;6.504;2022-08-03T13:19:24;16.65;;;4.93;;
52438;SDS011;38359;53.150;6.504;2022-08-03T13:21:50;21.92;;;5.50;;
52438;SDS011;38359;53.150;6.504;2022-08-03T13:24:16;15.77;;;4.80;;
52438;SDS011;38359;53.150;6.504;2022-08-03T13:26:43;14.77;;;4.97;;
52438;SDS011;38359;53.150;6.504;2022-08-03T13:29:09;16.88;;;4.85;;
52438;SDS011;38359;53.150;6.504;2022-08-03T13:31:35;12.20;;;4.35;;
52438;SDS011;38359;53.150;6.504;2022-08-03T13:34:00;20.88;;;5.70;;
52438;SDS011;38359;53.150;6.504;2022-08-03T13:36:28;23.13;;;4.97;;
52438;SDS011;38359;53.150;6.504;2022-08-03T13:38:53;15.50;;;3.97;;
52438;SDS011;38359;53.150;6.504;2022-08-03T13:41:19;14.82;;;4.20;;
52438;SDS011;38359;53.150;6.504;2022-08-03T13:43:46;14.25;;;3.83;;
52438;SDS011;38359;53.150;6.504;2022-08-03T13:46:12;15.77;;;4.28;;
52438;SDS011;38359;53.150;6.504;2022-08-03T13:48:37;14.20;;;4.05;;
52438;SDS011;38359;53.150;6.504;2022-08-03T13:51:03;18.77;;;5.13;;
52438;SDS011;38359;53.150;6.504;2022-08-03T13:53:29;16.70;;;4.90;;
52438;SDS011;38359;53.150;6.504;2022-08-03T13:55:55;10.63;;;3.83;;
52438;SDS011;38359;53.150;6.504;2022-08-03T13:58:21;18.20;;;4.80;;
52438;SDS011;38359;53.150;6.504;2022-08-03T14:00:47;14.25;;;4.00;;
52438;SDS011;38359;53.150;6.504;2022-08-03T14:03:12;14.30;;;4.15;;
52438;SDS011;38359;53.150;6.504;2022-08-03T14:05:38;11.48;;;4.00;;
52438;SDS011;38359;53.150;6.504;2022-08-03T14:08:05;17.77;;;4.55;;
52438;SDS011;38359;53.150;6.504;2022-08-03T14:10:32;13.20;;;4.30;;
52438;SDS011;38359;53.150;6.504;2022-08-03T14:13:03;9.90;;;3.78;;
52438;SDS011;38359;53.150;6.504;2022-08-03T14:15:30;14.23;;;4.20;;
52438;SDS011;38359;53.150;6.504;2022-08-03T14:17:56;14.98;;;4.05;;
52438;SDS011;38359;53.150;6.504;2022-08-03T14:20:22;16.17;;;4.53;;
52438;SDS011;38359;53.150;6.504;2022-08-03T14:22:48;13.55;;;4.15;;
52438;SDS011;38359;53.150;6.504;2022-08-03T14:25:13;16.05;;;4.03;;
52438;SDS011;38359;53.150;6.504;2022-08-03T14:27:39;18.63;;;4.15;;
52438;SDS011;38359;53.150;6.504;2022-08-03T14:30:05;13.20;;;4.25;;
52438;SDS011;38359;53.150;6.504;2022-08-03T14:32:31;15.73;;;4.65;;
52438;SDS011;38359;53.150;6.504;2022-08-03T14:34:57;13.43;;;4.28;;
52438;SDS011;38359;53.150;6.504;2022-08-03T14:37:23;12.13;;;3.90;;
52438;SDS011;38359;53.150;6.504;2022-08-03T14:39:48;12.77;;;4.25;;
52438;SDS011;38359;53.150;6.504;2022-08-03T14:42:14;12.45;;;4.82;;
52438;SDS011;38359;53.150;6.504;2022-08-03T14:44:40;13.68;;;4.38;;
52438;SDS011;38359;53.150;6.504;2022-08-03T14:47:06;16.60;;;3.78;;
52438;SDS011;38359;53.150;6.504;2022-08-03T14:49:32;8.80;;;3.42;;
52438;SDS011;38359;53.150;6.504;2022-08-03T14:51:58;15.52;;;3.50;;
52438;SDS011;38359;53.150;6.504;2022-08-03T14:54:24;10.95;;;3.58;;
52438;SDS011;38359;53.150;6.504;2022-08-03T14:56:50;13.90;;;3.42;;
52438;SDS011;38359;53.150;6.504;2022-08-03T14:59:16;12.73;;;3.90;;
52438;SDS011;38359;53.150;6.504;2022-08-03T15:01:42;10.02;;;3.63;;
52438;SDS011;38359;53.150;6.504;2022-08-03T15:04:07;13.32;;;3.58;;
52438;SDS011;38359;53.150;6.504;2022-08-03T15:06:36;8.98;;;3.70;;
52438;SDS011;38359;53.150;6.504;2022-08-03T15:09:02;9.48;;;3.20;;
52438;SDS011;38359;53.150;6.504;2022-08-03T15:11:28;9.07;;;3.42;;
52438;SDS011;38359;53.150;6.504;2022-08-03T15:13:54;13.95;;;4.20;;
52438;SDS011;38359;53.150;6.504;2022-08-03T15:16:19;9.55;;;3.30;;
52438;SDS011;38359;53.150;6.504;2022-08-03T15:18:45;13.57;;;3.88;;
52438;SDS011;38359;53.150;6.504;2022-08-03T15:21:11;12.70;;;3.70;;
52438;SDS011;38359;53.150;6.504;2022-08-03T15:23:37;10.73;;;3.58;;
52438;SDS011;38359;53.150;6.504;2022-08-03T15:26:03;13.10;;;3.92;;
52438;SDS011;38359;53.150;6.504;2022-08-03T15:28:29;10.50;;;3.47;;
52438;SDS011;38359;53.150;6.504;2022-08-03T15:30:55;13.13;;;3.72;;
52438;SDS011;38359;53.150;6.504;2022-08-03T15:33:21;10.50;;;3.75;;
52438;SDS011;38359;53.150;6.504;2022-08-03T15:35:47;11.52;;;3.47;;
52438;SDS011;38359;53.150;6.504;2022-08-03T15:38:17;11.48;;;3.42;;
52438;SDS011;38359;53.150;6.504;2022-08-03T15:40:43;13.77;;;3.25;;
52438;SDS011;38359;53.150;6.504;2022-08-03T15:43:09;13.23;;;3.65;;
52438;SDS011;38359;53.150;6.504;2022-08-03T15:45:35;11.93;;;3.53;;
52438;SDS011;38359;53.150;6.504;2022-08-03T15:48:01;11.65;;;3.20;;
52438;SDS011;38359;53.150;6.504;2022-08-03T15:50:31;11.40;;;2.97;;
52438;SDS011;38359;53.150;6.504;2022-08-03T15:52:56;9.57;;;3.13;;